Select METAR Reports

 

KLWC - Lawrence, Kansas USA
Distance from station: S 12mi, 20km
Updated: 06/19/2019 7:52pm CDT
Overcast
Overcast
 Wind from N
Wind: N 5 mph , 7 km/h
Temperature: 73°F , 23°C
Dew Point: 64°F , 18°C
Humidity: 74%
Barometer: 29.71 inHg , 1006.1 hPa
Clouds: Overcast
Visibility: 10 miles , 16 km
Cloud details: Overcast 8500 ft
2019/06/20 00:52 KLWC 200052Z AUTO 36004KT 10SM OVC085 23/18 A2971 RMK AO2 SLP053 T02330178
KTOP - Topeka/Billard, Kansas USA
Distance from station: WSW 23mi, 37km
Updated: 06/19/2019 7:53pm CDT
Mostly cloudy
Mostly cloudy
 Wind from calm
Wind: Calm
Temperature: 73°F , 23°C
Dew Point: 63°F , 17°C
Humidity: 69%
Barometer: 29.71 inHg , 1006.1 hPa
Clouds: Mostly cloudy
Visibility: 10 miles , 16 km
Cloud details: Few Clouds 3900 ft
Partly cloudy 7500 ft
Mostly cloudy 9000 ft
2019/06/20 00:53 KTOP 200053Z AUTO 00000KT 10SM FEW039 SCT075 BKN090 23/17 A2971 RMK AO2 RAE08 SLP052 P0000 T02330167
 
KMCI - Kansas City Intl, Missouri USA
Distance from station: ENE 28mi, 45km
Updated: 06/19/2019 7:53pm CDT
Mostly cloudy
Mostly cloudy
 Wind from N
Wind: N 6 mph , 9 km/h
Temperature: 73°F , 23°C
Dew Point: 64°F , 18°C
Humidity: 74%
Barometer: 29.71 inHg , 1006.1 hPa
Clouds: Mostly cloudy
Visibility: 10 miles , 16 km
Cloud details: Few Clouds 2800 ft
Mostly cloudy 7000 ft
Mostly cloudy 25000 ft
2019/06/20 00:53 KMCI 200053Z 01005KT 10SM FEW028 BKN070 BKN250 23/18 A2971 RMK AO2 SLP054 T02280178
KFOE - Topeka/Forbes, Kansas USA
Distance from station: SW 29mi, 46km
Updated: 06/19/2019 7:53pm CDT
Partly cloudy
Partly cloudy
 Wind from NNE
Wind: NNE 5 mph , 7 km/h
Temperature: 73°F , 23°C
Dew Point: 63°F , 17°C
Humidity: 69%
Barometer: 29.72 inHg , 1006.4 hPa
Clouds: Partly cloudy
Visibility: 10 miles , 16 km
Cloud details: Few Clouds 3800 ft
Partly cloudy 8000 ft
2019/06/20 00:53 KFOE 200053Z 03004KT 10SM FEW038 SCT080 23/17 A2972 RMK AO2 RAB00E09 SLP054 P0000 T02330172
 
KIXD - Olathe/Industrial, Kansas USA
Distance from station: SE 32mi, 52km
Updated: 06/19/2019 7:53pm CDT
Mostly cloudy
Mostly cloudy
 Wind from NW
Wind: NW 8 mph , 13 km/h
Temperature: 73°F , 23°C
Dew Point: 63°F , 17°C
Humidity: 69%
Barometer: 29.72 inHg , 1006.4 hPa
Clouds: Mostly cloudy
Visibility: 10 miles , 16 km
Cloud details: Partly cloudy 7000 ft
Mostly cloudy 9500 ft
2019/06/20 00:53 KIXD 200053Z 32007KT 10SM SCT070 BKN095 23/17 A2972 RMK AO2 SLP054 T02280167
KMKC - Kansas City/Dntn, Missouri USA
Distance from station: E 35mi, 56km
Updated: 06/19/2019 7:54pm CDT
Mostly cloudy
Mostly cloudy
 Wind from N
Wind: N 8 mph , 13 km/h
Temperature: 75°F , 24°C
Dew Point: 63°F , 17°C
Humidity: 65%
Barometer: 29.70 inHg , 1005.8 hPa
Clouds: Mostly cloudy
Visibility: 10 miles , 16 km
Cloud details: Few Clouds 3400 ft
Partly cloudy 6500 ft
Mostly cloudy 9000 ft
2019/06/20 00:54 KMKC 200054Z 36007KT 10SM FEW034 SCT065 BKN090 24/17 A2970 RMK AO2 SLP051 T02390172
 
KMHK - Manhattan, Kansas USA
Distance from station: W 75mi, 120km
Updated: 06/19/2019 7:52pm CDT
Overcast
Overcast
 Wind from calm
Wind: Calm
Temperature: 75°F , 24°C
Dew Point: 64°F , 18°C
Humidity: 69%
Barometer: 29.72 inHg , 1006.4 hPa
Clouds: Overcast
Visibility: 10 miles , 16 km
Cloud details: Overcast 8000 ft
2019/06/20 00:52 KMHK 200052Z 00000KT 10SM OVC080 24/18 A2972 RMK AO2 SLP056 T02390178
KFRI - Ft Riley/Marshal, Kansas, USA
Distance from station: W 83mi, 133km
Updated: 06/19/2019 7:56pm CDT
Partly cloudy
Partly cloudy
 Wind from calm
Wind: Calm
Temperature: 75°F , 24°C
Dew Point: 63°F , 17°C
Humidity: 65%
Barometer: 29.73 inHg , 1006.8 hPa
Clouds: Partly cloudy
Visibility: 10 miles , 16 km
Cloud details: Partly cloudy 8000 ft
2019/06/20 00:56 KFRI 200056Z AUTO 00000KT 10SM SCT080 24/17 A2973 RMK AO2 SLPNO T02360173
 
KOMA - Omaha, Nebraska USA
Distance from station: N 148mi, 239km
Updated: 06/19/2019 7:52pm CDT
Light rain, Mostly cloudy
Light rain, Mostly cloudy
 Wind from NW
Wind: NW 8 mph , 13 km/h
Temperature: 73°F , 23°C
Dew Point: 61°F , 16°C
Humidity: 65%
Barometer: 29.70 inHg , 1005.8 hPa
Summary: Light rain
Clouds: Mostly cloudy
Visibility: 10 miles , 16 km
Cloud details: Few Clouds 4800 ft
Partly cloudy 7000 ft
Mostly cloudy 11000 ft
Mostly cloudy 18000 ft
2019/06/20 00:52 KOMA 200052Z 32007KT 10SM -RA FEW048TCU SCT070 BKN110 BKN180 23/16 A2970 RMK AO2 RAB46 SLP050 TCU E-SE P0000 T02280156
KICT - Wichita, Kansas USA
Distance from station: SW 176mi, 283km
Updated: 06/19/2019 7:53pm CDT
Partly cloudy
Partly cloudy
 Wind from ESE
Wind: ESE 3 mph , 6 km/h
Temperature: 75°F , 24°C
Dew Point: 64°F , 18°C
Humidity: 69%
Barometer: 29.71 inHg , 1006.1 hPa
Clouds: Partly cloudy
Visibility: 10 miles , 16 km
Cloud details: Few Clouds 15000 ft
Partly cloudy 20000 ft
2019/06/20 00:53 KICT 200053Z 11003KT 10SM FEW150 SCT200 24/18 A2971 RMK AO2 SLP049 T02440178
 
KDSM - Des Moines, Iowa USA
Distance from station: NNE 186mi, 300km
Updated: 06/19/2019 7:54pm CDT
Mostly cloudy
Mostly cloudy
 Wind from SSE
Wind: SSE 5 mph , 7 km/h
Temperature: 66°F , 19°C
Dew Point: 63°F , 17°C
Humidity: 88%
Barometer: 29.69 inHg , 1005.4 hPa
Clouds: Mostly cloudy
Visibility: 10 miles , 16 km
Cloud details: Few Clouds 2800 ft
Partly cloudy 8000 ft
Mostly cloudy 11000 ft
Mostly cloudy 18000 ft
2019/06/20 00:54 KDSM 200054Z 16004KT 10SM FEW028 SCT080 BKN110 BKN180 19/17 A2969 RMK AO2 SLP050 T01890172
KGLD - Goodland, Kansas USA
Distance from station: W 380mi, 611km
Updated: 06/19/2019 7:53pm CDT
Clear
Clear
 Wind from E
Wind: E 6 mph , 9 km/h
Temperature: 75°F , 24°C
Dew Point: 54°F , 12°C
Humidity: 47%
Barometer: 29.78 inHg , 1008.5 hPa
Clouds: Clear
Visibility: 10 miles , 16 km
2019/06/20 00:53 KGLD 200053Z AUTO 09005KT 10SM CLR 24/12 A2978 RMK AO2 SLP046 T02440122
 
KOKC - Oklahoma City, Oklahoma USA
Distance from station: SSW 288mi, 463km
Updated: 06/19/2019 7:52pm CDT
Few Clouds
Few Clouds
 Wind from W
Wind: W 5 mph , 7 km/h
Temperature: 82°F , 28°C
Heat Index: 84°F , 29°C
Dew Point: 66°F , 19°C
Humidity: 58%
Barometer: 29.73 inHg , 1006.8 hPa
Clouds: Few Clouds
Visibility: 10 miles , 16 km
Cloud details: Few Clouds 5000 ft
Few Clouds 25000 ft
2019/06/20 00:52 KOKC 200052Z 26004KT 10SM FEW050 FEW250 28/19 A2973 RMK AO2 SLP054 T02780194 $
KSTL - St Loius, Missouri USA
Distance from station: E 288mi, 463km
Updated: 06/19/2019 7:51pm CDT
Mostly cloudy
Mostly cloudy
 Wind from WSW
Wind: WSW 9 mph , 15 km/h
Temperature: 77°F , 25°C
Dew Point: 64°F , 18°C
Humidity: 65%
Barometer: 29.62 inHg , 1003 hPa
Clouds: Mostly cloudy
Visibility: 10 miles , 16 km
Cloud details: Few Clouds 4500 ft
Partly cloudy 9000 ft
Mostly cloudy 25000 ft
2019/06/20 00:51 KSTL 200051Z 25008KT 10SM FEW045 SCT090 BKN250 25/18 A2962 RMK AO2 SLP020 CB DSNT NE-E AND DSNT S-SW MOV E T02500178
 
KDFW - Dallas/Ft Worth, Texas USA
Distance from station: SSW 452mi, 728km
Updated: 06/19/2019 7:53pm CDT
Mostly cloudy
Mostly cloudy
 Wind from S
Wind: S 9 mph , 15 km/h
Temperature: 91°F , 33°C
Heat Index: 102°F , 39°C
Dew Point: 75°F , 24°C
Humidity: 59%
Barometer: 29.63 inHg , 1003.4 hPa
Clouds: Mostly cloudy
Visibility: 10 miles , 16 km
Cloud details: Mostly cloudy 6000 ft
Mostly cloudy 30000 ft
2019/06/20 00:53 KDFW 200053Z 17008KT 10SM BKN060 BKN300 33/24 A2963 RMK AO2 SLP024 TCU DSNT N-E T03280244
PHNL - Honolulu, HI USA
Distance from station: WSW 3856mi, 6206km
Updated: 06/19/2019 7:53pm CDT
Partly cloudy
Partly cloudy
 Wind from ENE
Wind: ENE 17 mph , 28 km/h, Gust: 25 mph , 41 km/h
Temperature: 91°F , 33°C
Heat Index: 93°F , 34°C
Dew Point: 64°F , 18°C
Humidity: 41%
Barometer: 29.97 inHg , 1014.9 hPa
Clouds: Partly cloudy
Visibility: 10 miles , 16 km
Cloud details: Few Clouds 3000 ft
Partly cloudy 5000 ft
Partly cloudy 8000 ft
Partly cloudy 21000 ft
2019/06/20 00:53 PHNL 200053Z 07015G22KT 10SM FEW030 SCT050 SCT080 SCT210 33/18 A2997 RMK AO2 PK WND 06027/0038 SLP147 T03280183 $